sensor_id;sensor_type;location;lat;lon;timestamp;temperature;humidity
43561;DHT22;32305;46.410;17.394;2022-10-16T00:01:17;23.40;47.30
43561;DHT22;32305;46.410;17.394;2022-10-16T00:03:45;23.40;47.40
43561;DHT22;32305;46.410;17.394;2022-10-16T00:06:13;23.40;47.40
43561;DHT22;32305;46.410;17.394;2022-10-16T00:08:41;23.30;47.30
43561;DHT22;32305;46.410;17.394;2022-10-16T00:11:17;23.30;47.30
43561;DHT22;32305;46.410;17.394;2022-10-16T00:13:45;23.30;47.30
43561;DHT22;32305;46.410;17.394;2022-10-16T00:16:13;23.30;47.30
43561;DHT22;32305;46.410;17.394;2022-10-16T00:18:41;23.30;47.40
43561;DHT22;32305;46.410;17.394;2022-10-16T00:21:14;23.30;47.40
43561;DHT22;32305;46.410;17.394;2022-10-16T00:23:42;23.30;47.40
43561;DHT22;32305;46.410;17.394;2022-10-16T00:26:13;23.30;47.40
43561;DHT22;32305;46.410;17.394;2022-10-16T00:28:40;23.30;47.40
43561;DHT22;32305;46.410;17.394;2022-10-16T00:31:09;23.30;47.40
43561;DHT22;32305;46.410;17.394;2022-10-16T00:33:38;23.30;47.50
43561;DHT22;32305;46.410;17.394;2022-10-16T00:36:08;23.30;47.50
43561;DHT22;32305;46.410;17.394;2022-10-16T00:38:36;23.30;47.50
43561;DHT22;32305;46.410;17.394;2022-10-16T00:41:06;23.20;47.40
43561;DHT22;32305;46.410;17.394;2022-10-16T00:43:54;23.30;48.10
43561;DHT22;32305;46.410;17.394;2022-10-16T00:46:28;23.30;47.50
43561;DHT22;32305;46.410;17.394;2022-10-16T00:49:04;23.30;47.50
43561;DHT22;32305;46.410;17.394;2022-10-16T00:51:46;23.30;47.60
43561;DHT22;32305;46.410;17.394;2022-10-16T00:54:26;23.20;47.50
43561;DHT22;32305;46.410;17.394;2022-10-16T00:56:56;23.20;47.50
43561;DHT22;32305;46.410;17.394;2022-10-16T00:59:27;23.20;47.50
43561;DHT22;32305;46.410;17.394;2022-10-16T01:01:55;23.20;47.60
43561;DHT22;32305;46.410;17.394;2022-10-16T01:04:24;23.20;47.60
43561;DHT22;32305;46.410;17.394;2022-10-16T01:07:06;23.30;47.60
43561;DHT22;32305;46.410;17.394;2022-10-16T01:12:42;23.20;47.70
43561;DHT22;32305;46.410;17.394;2022-10-16T01:15:27;23.20;47.70
43561;DHT22;32305;46.410;17.394;2022-10-16T01:18:18;23.20;47.70
43561;DHT22;32305;46.410;17.394;2022-10-16T01:20:53;23.20;47.60
43561;DHT22;32305;46.410;17.394;2022-10-16T01:23:31;23.20;47.60
43561;DHT22;32305;46.410;17.394;2022-10-16T01:26:20;23.20;47.60
43561;DHT22;32305;46.410;17.394;2022-10-16T01:29:09;23.20;47.60
43561;DHT22;32305;46.410;17.394;2022-10-16T01:31:39;23.20;47.60
43561;DHT22;32305;46.410;17.394;2022-10-16T01:34:15;23.20;47.60
43561;DHT22;32305;46.410;17.394;2022-10-16T01:36:55;23.20;47.60
43561;DHT22;32305;46.410;17.394;2022-10-16T01:39:31;23.20;47.60
43561;DHT22;32305;46.410;17.394;2022-10-16T01:42:08;23.20;47.60
43561;DHT22;32305;46.410;17.394;2022-10-16T01:44:37;23.20;47.60
43561;DHT22;32305;46.410;17.394;2022-10-16T01:47:08;23.20;47.60
43561;DHT22;32305;46.410;17.394;2022-10-16T01:49:37;23.20;47.60
43561;DHT22;32305;46.410;17.394;2022-10-16T01:52:13;23.20;47.60
43561;DHT22;32305;46.410;17.394;2022-10-16T01:54:44;23.20;47.60
43561;DHT22;32305;46.410;17.394;2022-10-16T01:57:14;23.20;47.60
43561;DHT22;32305;46.410;17.394;2022-10-16T01:59:46;23.20;47.60
43561;DHT22;32305;46.410;17.394;2022-10-16T02:02:15;23.10;47.60
43561;DHT22;32305;46.410;17.394;2022-10-16T02:04:53;23.10;47.60
43561;DHT22;32305;46.410;17.394;2022-10-16T02:07:22;23.10;47.60
43561;DHT22;32305;46.410;17.394;2022-10-16T02:09:49;23.10;47.60
43561;DHT22;32305;46.410;17.394;2022-10-16T02:12:28;23.20;47.70
43561;DHT22;32305;46.410;17.394;2022-10-16T02:14:57;23.10;47.70
43561;DHT22;32305;46.410;17.394;2022-10-16T02:17:24;23.10;47.70
43561;DHT22;32305;46.410;17.394;2022-10-16T02:19:54;23.10;47.70
43561;DHT22;32305;46.410;17.394;2022-10-16T02:22:24;23.20;47.70
43561;DHT22;32305;46.410;17.394;2022-10-16T02:25:02;23.10;47.70
43561;DHT22;32305;46.410;17.394;2022-10-16T02:30:38;23.10;47.70
43561;DHT22;32305;46.410;17.394;2022-10-16T02:33:09;23.10;47.70
43561;DHT22;32305;46.410;17.394;2022-10-16T02:35:37;23.10;47.80
43561;DHT22;32305;46.410;17.394;2022-10-16T02:38:05;23.10;47.70
43561;DHT22;32305;46.410;17.394;2022-10-16T02:40:33;23.10;47.80
43561;DHT22;32305;46.410;17.394;2022-10-16T02:43:03;23.10;47.80
43561;DHT22;32305;46.410;17.394;2022-10-16T02:45:30;23.10;47.80
43561;DHT22;32305;46.410;17.394;2022-10-16T02:47:58;23.10;47.80
43561;DHT22;32305;46.410;17.394;2022-10-16T02:50:25;23.10;47.80
43561;DHT22;32305;46.410;17.394;2022-10-16T02:52:52;23.00;47.70
43561;DHT22;32305;46.410;17.394;2022-10-16T02:55:19;23.10;47.70
43561;DHT22;32305;46.410;17.394;2022-10-16T02:57:46;23.10;47.70
43561;DHT22;32305;46.410;17.394;2022-10-16T03:00:15;23.10;47.70
43561;DHT22;32305;46.410;17.394;2022-10-16T03:02:42;23.10;47.70
43561;DHT22;32305;46.410;17.394;2022-10-16T03:05:10;23.10;47.70
43561;DHT22;32305;46.410;17.394;2022-10-16T03:07:37;23.10;47.70
43561;DHT22;32305;46.410;17.394;2022-10-16T03:10:05;23.10;47.70
43561;DHT22;32305;46.410;17.394;2022-10-16T03:12:32;23.10;47.70
43561;DHT22;32305;46.410;17.394;2022-10-16T03:14:59;23.10;47.70
43561;DHT22;32305;46.410;17.394;2022-10-16T03:17:27;23.10;47.70
43561;DHT22;32305;46.410;17.394;2022-10-16T03:19:54;23.10;47.70
43561;DHT22;32305;46.410;17.394;2022-10-16T03:22:22;23.10;47.70
43561;DHT22;32305;46.410;17.394;2022-10-16T03:24:49;23.10;47.70
43561;DHT22;32305;46.410;17.394;2022-10-16T03:27:16;23.10;47.70
43561;DHT22;32305;46.410;17.394;2022-10-16T03:29:43;23.10;47.70
43561;DHT22;32305;46.410;17.394;2022-10-16T03:32:10;23.10;47.70
43561;DHT22;32305;46.410;17.394;2022-10-16T03:34:37;23.10;47.70
43561;DHT22;32305;46.410;17.394;2022-10-16T03:37:04;23.10;47.70
43561;DHT22;32305;46.410;17.394;2022-10-16T03:39:31;23.10;47.70
43561;DHT22;32305;46.410;17.394;2022-10-16T03:41:59;23.00;47.70
43561;DHT22;32305;46.410;17.394;2022-10-16T03:44:26;23.00;47.70
43561;DHT22;32305;46.410;17.394;2022-10-16T03:46:53;23.00;47.70
43561;DHT22;32305;46.410;17.394;2022-10-16T03:49:20;23.00;47.70
43561;DHT22;32305;46.410;17.394;2022-10-16T03:51:47;23.00;47.70
43561;DHT22;32305;46.410;17.394;2022-10-16T03:54:14;23.10;47.80
43561;DHT22;32305;46.410;17.394;2022-10-16T03:56:41;23.00;47.70
43561;DHT22;32305;46.410;17.394;2022-10-16T03:59:08;23.00;47.70
43561;DHT22;32305;46.410;17.394;2022-10-16T04:01:35;23.00;47.70
43561;DHT22;32305;46.410;17.394;2022-10-16T04:04:02;23.00;47.70
43561;DHT22;32305;46.410;17.394;2022-10-16T04:06:29;23.00;47.80
43561;DHT22;32305;46.410;17.394;2022-10-16T04:08:56;23.00;47.80
43561;DHT22;32305;46.410;17.394;2022-10-16T04:11:23;23.00;47.80
43561;DHT22;32305;46.410;17.394;2022-10-16T04:13:50;23.00;47.80
43561;DHT22;32305;46.410;17.394;2022-10-16T04:16:17;23.00;47.80
43561;DHT22;32305;46.410;17.394;2022-10-16T04:18:44;23.00;47.80
43561;DHT22;32305;46.410;17.394;2022-10-16T04:21:11;23.00;47.80
43561;DHT22;32305;46.410;17.394;2022-10-16T04:23:38;23.00;47.70
43561;DHT22;32305;46.410;17.394;2022-10-16T04:26:05;23.00;47.70
43561;DHT22;32305;46.410;17.394;2022-10-16T04:28:32;23.00;47.70
43561;DHT22;32305;46.410;17.394;2022-10-16T04:30:59;23.00;47.70
43561;DHT22;32305;46.410;17.394;2022-10-16T04:33:26;23.00;47.70
43561;DHT22;32305;46.410;17.394;2022-10-16T04:35:58;23.00;47.70
43561;DHT22;32305;46.410;17.394;2022-10-16T04:38:26;23.00;47.60
43561;DHT22;32305;46.410;17.394;2022-10-16T04:40:53;23.00;47.40
43561;DHT22;32305;46.410;17.394;2022-10-16T04:43:20;23.00;47.40
43561;DHT22;32305;46.410;17.394;2022-10-16T04:45:47;23.00;47.30
43561;DHT22;32305;46.410;17.394;2022-10-16T04:48:17;23.00;47.30
43561;DHT22;32305;46.410;17.394;2022-10-16T04:50:44;23.00;47.20
43561;DHT22;32305;46.410;17.394;2022-10-16T04:53:11;23.00;47.20
43561;DHT22;32305;46.410;17.394;2022-10-16T04:55:39;23.00;47.20
43561;DHT22;32305;46.410;17.394;2022-10-16T04:58:08;22.90;47.20
43561;DHT22;32305;46.410;17.394;2022-10-16T05:00:35;23.00;47.30
43561;DHT22;32305;46.410;17.394;2022-10-16T05:03:02;22.90;47.20
43561;DHT22;32305;46.410;17.394;2022-10-16T05:05:33;22.90;47.10
43561;DHT22;32305;46.410;17.394;2022-10-16T05:08:00;22.90;47.10
43561;DHT22;32305;46.410;17.394;2022-10-16T05:10:27;22.90;47.00
43561;DHT22;32305;46.410;17.394;2022-10-16T05:12:54;22.90;47.00
43561;DHT22;32305;46.410;17.394;2022-10-16T05:15:21;22.90;46.90
43561;DHT22;32305;46.410;17.394;2022-10-16T05:17:55;22.90;46.90
43561;DHT22;32305;46.410;17.394;2022-10-16T05:20:22;22.90;47.40
43561;DHT22;32305;46.410;17.394;2022-10-16T05:22:49;22.90;46.80
43561;DHT22;32305;46.410;17.394;2022-10-16T05:25:16;22.90;46.80
43561;DHT22;32305;46.410;17.394;2022-10-16T05:27:47;22.90;46.70
43561;DHT22;32305;46.410;17.394;2022-10-16T05:30:16;22.90;46.60
43561;DHT22;32305;46.410;17.394;2022-10-16T05:32:48;22.90;46.60
43561;DHT22;32305;46.410;17.394;2022-10-16T05:35:16;22.90;46.50
43561;DHT22;32305;46.410;17.394;2022-10-16T05:37:43;22.90;46.50
43561;DHT22;32305;46.410;17.394;2022-10-16T05:40:11;22.90;46.40
43561;DHT22;32305;46.410;17.394;2022-10-16T05:42:40;22.90;46.40
43561;DHT22;32305;46.410;17.394;2022-10-16T05:45:10;22.90;46.30
43561;DHT22;32305;46.410;17.394;2022-10-16T05:47:39;22.90;46.30
43561;DHT22;32305;46.410;17.394;2022-10-16T05:50:06;22.90;46.20
43561;DHT22;32305;46.410;17.394;2022-10-16T05:52:33;22.90;46.20
43561;DHT22;32305;46.410;17.394;2022-10-16T05:55:00;22.90;46.10
43561;DHT22;32305;46.410;17.394;2022-10-16T05:57:28;22.90;46.10
43561;DHT22;32305;46.410;17.394;2022-10-16T05:59:55;23.00;46.10
43561;DHT22;32305;46.410;17.394;2022-10-16T06:02:22;23.00;46.00
43561;DHT22;32305;46.410;17.394;2022-10-16T06:04:51;23.00;46.00
43561;DHT22;32305;46.410;17.394;2022-10-16T06:07:18;22.90;45.90
43561;DHT22;32305;46.410;17.394;2022-10-16T06:09:48;22.90;45.80
43561;DHT22;32305;46.410;17.394;2022-10-16T06:12:16;22.90;45.80
43561;DHT22;32305;46.410;17.394;2022-10-16T06:14:44;23.00;45.80
43561;DHT22;32305;46.410;17.394;2022-10-16T06:17:11;23.00;45.80
43561;DHT22;32305;46.410;17.394;2022-10-16T06:19:39;23.00;45.70
43561;DHT22;32305;46.410;17.394;2022-10-16T06:22:06;23.00;45.70
43561;DHT22;32305;46.410;17.394;2022-10-16T06:24:33;23.00;45.60
43561;DHT22;32305;46.410;17.394;2022-10-16T06:27:00;23.00;45.60
43561;DHT22;32305;46.410;17.394;2022-10-16T06:29:27;23.00;45.50
43561;DHT22;32305;46.410;17.394;2022-10-16T06:31:54;23.10;45.50
43561;DHT22;32305;46.410;17.394;2022-10-16T06:34:21;23.00;45.40
43561;DHT22;32305;46.410;17.394;2022-10-16T06:36:48;23.10;45.40
43561;DHT22;32305;46.410;17.394;2022-10-16T06:39:15;23.10;45.40
43561;DHT22;32305;46.410;17.394;2022-10-16T06:41:42;23.10;45.40
43561;DHT22;32305;46.410;17.394;2022-10-16T06:44:09;23.10;45.30
43561;DHT22;32305;46.410;17.394;2022-10-16T06:46:36;23.10;45.30
43561;DHT22;32305;46.410;17.394;2022-10-16T06:49:03;23.20;45.30
43561;DHT22;32305;46.410;17.394;2022-10-16T06:51:31;23.10;45.20
43561;DHT22;32305;46.410;17.394;2022-10-16T06:54:04;23.20;45.20
43561;DHT22;32305;46.410;17.394;2022-10-16T06:56:32;23.20;45.20
43561;DHT22;32305;46.410;17.394;2022-10-16T06:59:00;23.20;45.20
43561;DHT22;32305;46.410;17.394;2022-10-16T07:01:28;23.20;45.10
43561;DHT22;32305;46.410;17.394;2022-10-16T07:03:55;23.20;45.10
43561;DHT22;32305;46.410;17.394;2022-10-16T07:06:24;23.30;45.10
43561;DHT22;32305;46.410;17.394;2022-10-16T07:08:51;23.30;45.10
43561;DHT22;32305;46.410;17.394;2022-10-16T07:11:22;23.30;45.00
43561;DHT22;32305;46.410;17.394;2022-10-16T07:13:50;23.30;45.00
43561;DHT22;32305;46.410;17.394;2022-10-16T07:16:24;23.30;45.00
43561;DHT22;32305;46.410;17.394;2022-10-16T07:18:52;23.30;45.00
43561;DHT22;32305;46.410;17.394;2022-10-16T07:21:26;23.30;44.90
43561;DHT22;32305;46.410;17.394;2022-10-16T07:23:58;23.40;44.90
43561;DHT22;32305;46.410;17.394;2022-10-16T07:26:27;23.40;44.90
43561;DHT22;32305;46.410;17.394;2022-10-16T07:28:54;23.40;44.80
43561;DHT22;32305;46.410;17.394;2022-10-16T07:31:22;23.40;44.80
43561;DHT22;32305;46.410;17.394;2022-10-16T07:33:49;23.40;44.80
43561;DHT22;32305;46.410;17.394;2022-10-16T07:36:18;23.40;44.80
43561;DHT22;32305;46.410;17.394;2022-10-16T07:38:45;23.40;44.70
43561;DHT22;32305;46.410;17.394;2022-10-16T07:41:15;23.50;44.80
43561;DHT22;32305;46.410;17.394;2022-10-16T07:43:47;23.50;44.70
43561;DHT22;32305;46.410;17.394;2022-10-16T07:46:15;23.50;44.70
43561;DHT22;32305;46.410;17.394;2022-10-16T07:48:43;23.50;44.70
43561;DHT22;32305;46.410;17.394;2022-10-16T07:51:21;23.60;44.70
43561;DHT22;32305;46.410;17.394;2022-10-16T07:53:49;23.60;44.70
43561;DHT22;32305;46.410;17.394;2022-10-16T07:56:17;23.60;44.70
43561;DHT22;32305;46.410;17.394;2022-10-16T07:58:45;23.60;44.70
43561;DHT22;32305;46.410;17.394;2022-10-16T08:01:14;23.60;44.60
43561;DHT22;32305;46.410;17.394;2022-10-16T08:03:43;23.60;44.70
43561;DHT22;32305;46.410;17.394;2022-10-16T08:06:10;23.60;44.60
43561;DHT22;32305;46.410;17.394;2022-10-16T08:08:37;23.70;44.60
43561;DHT22;32305;46.410;17.394;2022-10-16T08:11:04;23.70;44.60
43561;DHT22;32305;46.410;17.394;2022-10-16T08:13:32;23.70;44.60
43561;DHT22;32305;46.410;17.394;2022-10-16T08:15:59;23.70;44.60
43561;DHT22;32305;46.410;17.394;2022-10-16T08:18:26;23.70;44.60
43561;DHT22;32305;46.410;17.394;2022-10-16T08:20:58;23.70;44.60
43561;DHT22;32305;46.410;17.394;2022-10-16T08:23:26;23.70;44.60
43561;DHT22;32305;46.410;17.394;2022-10-16T08:25:54;23.70;45.10
43561;DHT22;32305;46.410;17.394;2022-10-16T08:28:22;23.80;44.60
43561;DHT22;32305;46.410;17.394;2022-10-16T08:30:50;23.80;44.60
43561;DHT22;32305;46.410;17.394;2022-10-16T08:33:17;23.80;44.60
43561;DHT22;32305;46.410;17.394;2022-10-16T08:35:51;23.90;44.70
43561;DHT22;32305;46.410;17.394;2022-10-16T08:38:19;23.90;44.60
43561;DHT22;32305;46.410;17.394;2022-10-16T08:40:46;23.90;44.60
43561;DHT22;32305;46.410;17.394;2022-10-16T08:43:43;23.90;44.60
43561;DHT22;32305;46.410;17.394;2022-10-16T08:49:21;23.90;44.60
43561;DHT22;32305;46.410;17.394;2022-10-16T08:51:51;24.00;44.60
43561;DHT22;32305;46.410;17.394;2022-10-16T08:54:41;24.00;44.60
43561;DHT22;32305;46.410;17.394;2022-10-16T08:57:13;24.00;44.60
43561;DHT22;32305;46.410;17.394;2022-10-16T08:59:49;24.00;44.60
43561;DHT22;32305;46.410;17.394;2022-10-16T09:02:24;24.10;44.60
43561;DHT22;32305;46.410;17.394;2022-10-16T09:05:20;24.10;44.60
43561;DHT22;32305;46.410;17.394;2022-10-16T09:08:04;24.10;44.60
43561;DHT22;32305;46.410;17.394;2022-10-16T09:11:00;24.10;44.60
43561;DHT22;32305;46.410;17.394;2022-10-16T09:13:43;24.20;44.60
43561;DHT22;32305;46.410;17.394;2022-10-16T09:16:36;24.20;44.60
43561;DHT22;32305;46.410;17.394;2022-10-16T09:19:29;24.20;44.60
43561;DHT22;32305;46.410;17.394;2022-10-16T09:22:00;24.30;44.70
43561;DHT22;32305;46.410;17.394;2022-10-16T09:24:30;24.30;44.70
43561;DHT22;32305;46.410;17.394;2022-10-16T09:26:57;24.20;44.60
43561;DHT22;32305;46.410;17.394;2022-10-16T09:29:24;24.30;44.60
43561;DHT22;32305;46.410;17.394;2022-10-16T09:31:53;24.30;44.20
43561;DHT22;32305;46.410;17.394;2022-10-16T09:34:33;24.30;44.60
43561;DHT22;32305;46.410;17.394;2022-10-16T09:37:04;24.30;44.60
43561;DHT22;32305;46.410;17.394;2022-10-16T09:39:53;24.30;44.60
43561;DHT22;32305;46.410;17.394;2022-10-16T09:42:30;24.30;44.60
43561;DHT22;32305;46.410;17.394;2022-10-16T09:44:58;24.30;44.60
43561;DHT22;32305;46.410;17.394;2022-10-16T09:47:28;24.40;44.70
43561;DHT22;32305;46.410;17.394;2022-10-16T09:50:20;24.40;44.70
43561;DHT22;32305;46.410;17.394;2022-10-16T09:52:48;24.40;44.70
43561;DHT22;32305;46.410;17.394;2022-10-16T09:55:17;24.40;44.70
43561;DHT22;32305;46.410;17.394;2022-10-16T09:57:52;24.40;44.70
43561;DHT22;32305;46.410;17.394;2022-10-16T10:00:20;24.50;44.70
43561;DHT22;32305;46.410;17.394;2022-10-16T10:02:48;24.50;44.70
43561;DHT22;32305;46.410;17.394;2022-10-16T10:05:24;24.50;44.70
43561;DHT22;32305;46.410;17.394;2022-10-16T10:07:57;24.50;44.70
43561;DHT22;32305;46.410;17.394;2022-10-16T10:10:27;24.50;44.60
43561;DHT22;32305;46.410;17.394;2022-10-16T10:12:55;24.50;44.60
43561;DHT22;32305;46.410;17.394;2022-10-16T10:15:24;24.50;44.60
43561;DHT22;32305;46.410;17.394;2022-10-16T10:17:53;24.60;44.70
43561;DHT22;32305;46.410;17.394;2022-10-16T10:20:30;24.60;44.70
43561;DHT22;32305;46.410;17.394;2022-10-16T10:23:13;24.60;44.60
43561;DHT22;32305;46.410;17.394;2022-10-16T10:26:07;24.60;44.70
43561;DHT22;32305;46.410;17.394;2022-10-16T10:29:01;24.60;45.30
43561;DHT22;32305;46.410;17.394;2022-10-16T10:32:22;24.60;44.60
43561;DHT22;32305;46.410;17.394;2022-10-16T10:35:06;24.60;44.60
43561;DHT22;32305;46.410;17.394;2022-10-16T10:37:43;24.70;44.70
43561;DHT22;32305;46.410;17.394;2022-10-16T10:40:34;24.70;44.70
43561;DHT22;32305;46.410;17.394;2022-10-16T10:43:26;24.70;44.70
43561;DHT22;32305;46.410;17.394;2022-10-16T10:46:01;24.70;44.70
43561;DHT22;32305;46.410;17.394;2022-10-16T10:51:55;24.70;44.70
43561;DHT22;32305;46.410;17.394;2022-10-16T10:58:00;24.70;44.70
43561;DHT22;32305;46.410;17.394;2022-10-16T11:04:07;24.80;44.70
43561;DHT22;32305;46.410;17.394;2022-10-16T11:06:57;24.80;44.70
43561;DHT22;32305;46.410;17.394;2022-10-16T11:09:30;24.80;44.70
43561;DHT22;32305;46.410;17.394;2022-10-16T11:12:17;24.80;44.60
43561;DHT22;32305;46.410;17.394;2022-10-16T11:15:04;24.80;44.60
43561;DHT22;32305;46.410;17.394;2022-10-16T11:17:39;24.90;44.60
43561;DHT22;32305;46.410;17.394;2022-10-16T11:20:15;24.90;44.60
43561;DHT22;32305;46.410;17.394;2022-10-16T11:22:52;24.90;44.60
43561;DHT22;32305;46.410;17.394;2022-10-16T11:25:30;24.90;44.50
43561;DHT22;32305;46.410;17.394;2022-10-16T11:28:23;24.90;44.40
43561;DHT22;32305;46.410;17.394;2022-10-16T11:31:05;24.90;44.40
43561;DHT22;32305;46.410;17.394;2022-10-16T11:36:44;25.00;44.40
43561;DHT22;32305;46.410;17.394;2022-10-16T11:39:21;25.00;44.90
43561;DHT22;32305;46.410;17.394;2022-10-16T11:41:54;25.00;44.30
43561;DHT22;32305;46.410;17.394;2022-10-16T11:44:41;25.00;44.30
43561;DHT22;32305;46.410;17.394;2022-10-16T11:53:51;25.10;44.30
43561;DHT22;32305;46.410;17.394;2022-10-16T11:56:21;25.10;44.30
43561;DHT22;32305;46.410;17.394;2022-10-16T11:59:13;25.10;44.20
43561;DHT22;32305;46.410;17.394;2022-10-16T12:01:51;25.10;44.20
43561;DHT22;32305;46.410;17.394;2022-10-16T12:04:32;25.10;44.20
43561;DHT22;32305;46.410;17.394;2022-10-16T12:07:08;25.10;44.80
43561;DHT22;32305;46.410;17.394;2022-10-16T12:09:38;25.10;44.20
43561;DHT22;32305;46.410;17.394;2022-10-16T12:12:28;25.10;44.20
43561;DHT22;32305;46.410;17.394;2022-10-16T12:15:29;25.10;44.20
43561;DHT22;32305;46.410;17.394;2022-10-16T12:18:24;25.10;44.20
43561;DHT22;32305;46.410;17.394;2022-10-16T12:20:58;25.10;44.20
43561;DHT22;32305;46.410;17.394;2022-10-16T12:23:32;25.10;44.20
43561;DHT22;32305;46.410;17.394;2022-10-16T12:26:01;25.10;44.10
43561;DHT22;32305;46.410;17.394;2022-10-16T12:28:31;25.10;44.10
43561;DHT22;32305;46.410;17.394;2022-10-16T12:31:04;25.10;44.10
43561;DHT22;32305;46.410;17.394;2022-10-16T12:33:34;25.10;44.10
43561;DHT22;32305;46.410;17.394;2022-10-16T12:36:05;25.10;44.00
43561;DHT22;32305;46.410;17.394;2022-10-16T12:38:46;25.20;44.10
43561;DHT22;32305;46.410;17.394;2022-10-16T12:41:25;25.10;44.00
43561;DHT22;32305;46.410;17.394;2022-10-16T12:43:53;25.20;44.00
43561;DHT22;32305;46.410;17.394;2022-10-16T12:46:38;25.20;44.00
43561;DHT22;32305;46.410;17.394;2022-10-16T12:49:22;25.20;43.90
43561;DHT22;32305;46.410;17.394;2022-10-16T12:51:51;25.20;43.90
43561;DHT22;32305;46.410;17.394;2022-10-16T12:54:35;25.20;43.90
43561;DHT22;32305;46.410;17.394;2022-10-16T13:00:26;25.20;43.90
43561;DHT22;32305;46.410;17.394;2022-10-16T13:09:40;25.20;44.00
43561;DHT22;32305;46.410;17.394;2022-10-16T13:12:25;25.20;44.00
43561;DHT22;32305;46.410;17.394;2022-10-16T13:15:42;25.20;44.00
43561;DHT22;32305;46.410;17.394;2022-10-16T13:18:16;25.20;44.00
43561;DHT22;32305;46.410;17.394;2022-10-16T13:21:19;25.20;44.00
43561;DHT22;32305;46.410;17.394;2022-10-16T13:27:07;25.20;44.00
43561;DHT22;32305;46.410;17.394;2022-10-16T13:29:35;25.20;44.10
43561;DHT22;32305;46.410;17.394;2022-10-16T13:32:08;25.20;44.00
43561;DHT22;32305;46.410;17.394;2022-10-16T13:34:45;25.20;44.10
43561;DHT22;32305;46.410;17.394;2022-10-16T13:37:21;25.20;44.10
43561;DHT22;32305;46.410;17.394;2022-10-16T13:39:48;25.20;44.10
43561;DHT22;32305;46.410;17.394;2022-10-16T13:42:26;25.20;44.00
43561;DHT22;32305;46.410;17.394;2022-10-16T13:44:55;25.20;44.00
43561;DHT22;32305;46.410;17.394;2022-10-16T13:47:26;25.20;44.10
43561;DHT22;32305;46.410;17.394;2022-10-16T13:50:09;25.20;44.00
43561;DHT22;32305;46.410;17.394;2022-10-16T13:52:37;25.20;44.00
43561;DHT22;32305;46.410;17.394;2022-10-16T13:55:11;25.20;44.10
43561;DHT22;32305;46.410;17.394;2022-10-16T13:57:39;25.20;44.10
43561;DHT22;32305;46.410;17.394;2022-10-16T14:00:23;25.20;44.10
43561;DHT22;32305;46.410;17.394;2022-10-16T14:03:02;25.20;44.10
43561;DHT22;32305;46.410;17.394;2022-10-16T14:05:30;25.20;44.10
43561;DHT22;32305;46.410;17.394;2022-10-16T14:07:58;25.20;44.10
43561;DHT22;32305;46.410;17.394;2022-10-16T14:10:30;25.20;44.10
43561;DHT22;32305;46.410;17.394;2022-10-16T14:13:03;25.20;44.10
43561;DHT22;32305;46.410;17.394;2022-10-16T14:15:34;25.20;44.10
43561;DHT22;32305;46.410;17.394;2022-10-16T14:18:01;25.20;44.20
43561;DHT22;32305;46.410;17.394;2022-10-16T14:20:31;25.20;44.20
43561;DHT22;32305;46.410;17.394;2022-10-16T14:25:53;25.20;44.20
43561;DHT22;32305;46.410;17.394;2022-10-16T14:28:22;25.20;44.20
43561;DHT22;32305;46.410;17.394;2022-10-16T14:30:58;25.20;44.30
43561;DHT22;32305;46.410;17.394;2022-10-16T14:33:33;25.20;44.30
43561;DHT22;32305;46.410;17.394;2022-10-16T14:36:13;25.10;44.30
43561;DHT22;32305;46.410;17.394;2022-10-16T14:38:47;25.10;44.30
43561;DHT22;32305;46.410;17.394;2022-10-16T14:41:15;25.10;44.40
43561;DHT22;32305;46.410;17.394;2022-10-16T14:43:43;25.10;44.40
43561;DHT22;32305;46.410;17.394;2022-10-16T14:46:19;25.10;44.40
43561;DHT22;32305;46.410;17.394;2022-10-16T14:49:00;25.10;44.40
43561;DHT22;32305;46.410;17.394;2022-10-16T14:51:27;25.10;44.50
43561;DHT22;32305;46.410;17.394;2022-10-16T14:53:54;25.10;44.50
43561;DHT22;32305;46.410;17.394;2022-10-16T14:56:30;25.10;44.50
43561;DHT22;32305;46.410;17.394;2022-10-16T14:58:59;25.10;44.60
43561;DHT22;32305;46.410;17.394;2022-10-16T15:01:27;25.10;44.60
43561;DHT22;32305;46.410;17.394;2022-10-16T15:03:54;25.00;44.60
43561;DHT22;32305;46.410;17.394;2022-10-16T15:06:22;25.00;44.60
43561;DHT22;32305;46.410;17.394;2022-10-16T15:08:49;25.10;44.60
43561;DHT22;32305;46.410;17.394;2022-10-16T15:11:17;25.00;44.60
43561;DHT22;32305;46.410;17.394;2022-10-16T15:13:46;25.00;44.60
43561;DHT22;32305;46.410;17.394;2022-10-16T15:16:15;25.00;44.70
43561;DHT22;32305;46.410;17.394;2022-10-16T15:18:43;25.00;44.70
43561;DHT22;32305;46.410;17.394;2022-10-16T15:21:29;25.00;44.70
43561;DHT22;32305;46.410;17.394;2022-10-16T15:23:57;25.00;44.70
43561;DHT22;32305;46.410;17.394;2022-10-16T15:26:26;25.00;44.80
43561;DHT22;32305;46.410;17.394;2022-10-16T15:28:54;25.00;44.80
43561;DHT22;32305;46.410;17.394;2022-10-16T15:31:21;25.00;44.80
43561;DHT22;32305;46.410;17.394;2022-10-16T15:33:53;25.00;44.80
43561;DHT22;32305;46.410;17.394;2022-10-16T15:36:34;25.00;44.90
43561;DHT22;32305;46.410;17.394;2022-10-16T15:39:04;24.90;44.90
43561;DHT22;32305;46.410;17.394;2022-10-16T15:41:32;24.90;44.90
43561;DHT22;32305;46.410;17.394;2022-10-16T15:43:59;24.90;44.90
43561;DHT22;32305;46.410;17.394;2022-10-16T15:46:26;24.90;44.90
43561;DHT22;32305;46.410;17.394;2022-10-16T15:48:56;24.90;44.90
43561;DHT22;32305;46.410;17.394;2022-10-16T15:51:24;24.90;45.00
43561;DHT22;32305;46.410;17.394;2022-10-16T15:53:54;24.90;45.00
43561;DHT22;32305;46.410;17.394;2022-10-16T15:56:21;24.90;45.00
43561;DHT22;32305;46.410;17.394;2022-10-16T15:58:49;24.90;45.10
43561;DHT22;32305;46.410;17.394;2022-10-16T16:01:16;24.80;45.20
43561;DHT22;32305;46.410;17.394;2022-10-16T16:03:43;24.90;45.20
43561;DHT22;32305;46.410;17.394;2022-10-16T16:06:12;24.80;45.20
43561;DHT22;32305;46.410;17.394;2022-10-16T16:08:40;24.80;45.20
43561;DHT22;32305;46.410;17.394;2022-10-16T16:11:11;24.70;45.20
43561;DHT22;32305;46.410;17.394;2022-10-16T16:13:39;24.70;45.30
43561;DHT22;32305;46.410;17.394;2022-10-16T16:16:12;24.70;45.40
43561;DHT22;32305;46.410;17.394;2022-10-16T16:18:40;24.70;45.50
43561;DHT22;32305;46.410;17.394;2022-10-16T16:21:08;24.60;45.50
43561;DHT22;32305;46.410;17.394;2022-10-16T16:23:36;24.60;45.60
43561;DHT22;32305;46.410;17.394;2022-10-16T16:26:09;24.60;45.60
43561;DHT22;32305;46.410;17.394;2022-10-16T16:28:38;24.60;45.70
43561;DHT22;32305;46.410;17.394;2022-10-16T16:31:05;24.50;45.70